createdAt,value
2022-11-01T00:04:05.015Z,1
2022-11-01T00:14:04.959Z,1
2022-11-01T00:24:04.867Z,1
2022-11-01T00:34:04.776Z,1
2022-11-01T00:44:04.723Z,1
2022-11-01T00:54:04.674Z,1
2022-11-01T01:04:04.586Z,1
2022-11-01T01:14:04.520Z,1
2022-11-01T01:34:04.380Z,1
2022-11-01T01:44:04.308Z,1
2022-11-01T01:54:04.226Z,1
2022-11-01T02:14:04.188Z,1
2022-11-01T02:24:04.035Z,1
2022-11-01T02:34:03.954Z,3
2022-11-01T02:44:03.876Z,14
2022-11-01T02:54:03.804Z,14
2022-11-01T03:04:03.778Z,12
2022-11-01T03:14:03.716Z,12
2022-11-01T03:24:03.596Z,12
2022-11-01T03:34:03.533Z,17
2022-11-01T03:44:03.469Z,17
2022-11-01T03:54:03.405Z,17
2022-11-01T04:04:03.311Z,20
2022-11-01T04:14:03.241Z,20
2022-11-01T04:24:03.195Z,22
2022-11-01T04:34:03.099Z,26
2022-11-01T04:44:03.039Z,28
2022-11-01T04:54:02.952Z,26
2022-11-01T05:04:02.890Z,34
2022-11-01T05:14:02.814Z,33
2022-11-01T05:24:02.748Z,40
2022-11-01T05:34:02.661Z,56
2022-11-01T05:44:02.717Z,57
2022-11-01T05:54:02.528Z,65
2022-11-01T06:04:02.468Z,71
2022-11-01T06:14:02.373Z,73
2022-11-01T06:24:02.327Z,73
2022-11-01T06:34:02.378Z,79
2022-11-01T06:44:02.187Z,83
2022-11-01T06:54:02.215Z,82
2022-11-01T07:04:02.099Z,90
2022-11-01T07:14:01.975Z,84
2022-11-01T07:24:01.892Z,87
2022-11-01T07:34:01.826Z,89
2022-11-01T07:44:01.759Z,86
2022-11-01T08:04:01.624Z,96
2022-11-01T08:14:05.216Z,99
2022-11-01T08:24:01.447Z,99
2022-11-01T08:34:01.408Z,99
2022-11-01T08:44:01.338Z,99
2022-11-01T08:54:01.252Z,99
2022-11-01T09:04:01.204Z,99
2022-11-01T09:14:01.109Z,99
2022-11-01T09:24:01.230Z,98
2022-11-01T09:34:00.986Z,98
2022-11-01T09:44:00.923Z,99
2022-11-01T09:54:00.818Z,99
2022-11-01T10:04:00.771Z,99
2022-11-01T10:14:00.810Z,99
2022-11-01T10:24:00.623Z,99
2022-11-01T10:34:00.665Z,93
2022-11-01T10:44:00.467Z,99
2022-11-01T10:54:00.402Z,95
2022-11-01T11:04:00.343Z,98
2022-11-01T11:14:00.257Z,99
2022-11-01T11:24:00.236Z,92
2022-11-01T11:34:00.119Z,93
2022-11-01T11:44:00.103Z,96
2022-11-01T11:53:59.960Z,99
2022-11-01T12:03:59.920Z,99
2022-11-01T12:13:59.839Z,99
2022-11-01T12:23:59.762Z,99
2022-11-01T12:33:59.797Z,97
2022-11-01T12:43:59.621Z,99
2022-11-01T12:53:59.551Z,99
2022-11-01T13:03:59.483Z,99
2022-11-01T13:13:59.391Z,99
2022-11-01T13:23:59.328Z,99
2022-11-01T13:33:59.252Z,99
2022-11-01T13:43:59.195Z,99
2022-11-01T13:53:59.126Z,88
2022-11-01T14:13:58.979Z,96
2022-11-01T14:23:58.912Z,98
2022-11-01T14:34:00.332Z,99
2022-11-01T14:43:58.874Z,99
2022-11-01T14:53:58.693Z,99
2022-11-01T15:03:58.629Z,99
2022-11-01T15:13:58.554Z,99
2022-11-01T15:23:58.498Z,99
2022-11-01T15:33:58.401Z,99
2022-11-01T15:43:58.337Z,99
2022-11-01T15:53:58.265Z,99
2022-11-01T16:03:58.188Z,99
2022-11-01T16:13:58.107Z,99
2022-11-01T16:23:58.137Z,99
2022-11-01T16:33:58.008Z,99
2022-11-01T16:43:58.016Z,99
2022-11-01T16:53:57.844Z,99
2022-11-01T17:03:57.770Z,99
2022-11-01T17:13:57.782Z,99
2022-11-01T17:23:57.648Z,99
2022-11-01T17:33:57.557Z,99
2022-11-01T17:43:57.484Z,99
2022-11-01T17:53:57.423Z,99
2022-11-01T18:03:57.338Z,99
2022-11-01T18:14:02.589Z,99
2022-11-01T18:23:57.298Z,99
2022-11-01T18:33:57.111Z,99
2022-11-01T18:43:57.061Z,99
2022-11-01T18:53:57.009Z,99
2022-11-01T19:03:56.924Z,99
2022-11-01T19:13:56.842Z,99
2022-11-01T19:23:56.768Z,99
2022-11-01T19:33:56.719Z,92
2022-11-01T19:43:56.650Z,86
2022-11-01T19:53:56.571Z,84
2022-11-01T20:03:56.640Z,85
2022-11-01T20:13:56.427Z,90
2022-11-01T20:23:56.374Z,87
2022-11-01T20:33:56.289Z,91
2022-11-01T20:43:56.225Z,92
2022-11-01T20:53:56.168Z,89
2022-11-01T21:03:56.093Z,86
2022-11-01T21:13:56.033Z,75
2022-11-01T21:23:55.955Z,78
2022-11-01T21:33:55.889Z,82
2022-11-01T21:43:55.948Z,99
2022-11-01T21:53:58.884Z,99
2022-11-01T22:03:55.666Z,99
2022-11-01T22:13:55.612Z,99
2022-11-01T22:23:55.527Z,99
2022-11-01T22:33:55.478Z,99
2022-11-01T22:43:55.398Z,99
2022-11-01T22:53:55.343Z,99
2022-11-01T23:03:55.241Z,99
2022-11-01T23:13:55.211Z,99
2022-11-01T23:23:55.128Z,1
2022-11-01T23:33:55.062Z,99
2022-11-01T23:43:54.998Z,99
2022-11-01T23:53:54.924Z,99
